createdAt,value
2023-05-12T00:00:16.270Z,96.40
2023-05-12T00:03:10.596Z,96.30
2023-05-12T00:06:05.732Z,96.40
2023-05-12T00:09:00.045Z,96.60
2023-05-12T00:11:54.469Z,96.40
2023-05-12T00:14:49.832Z,96.10
2023-05-12T00:17:44.086Z,95.80
2023-05-12T00:20:38.500Z,95.00
2023-05-12T00:23:32.852Z,94.90
2023-05-12T00:26:27.193Z,94.50
2023-05-12T00:29:21.683Z,94.20
2023-05-12T00:32:16.083Z,93.90
2023-05-12T00:35:11.837Z,93.60
2023-05-12T00:38:06.056Z,93.30
2023-05-12T00:41:00.911Z,93.00
2023-05-12T00:43:55.413Z,92.50
2023-05-12T00:46:49.854Z,92.70
2023-05-12T00:49:44.262Z,92.90
2023-05-12T00:52:38.838Z,92.70
2023-05-12T00:55:33.080Z,92.30
2023-05-12T00:58:28.140Z,92.20
2023-05-12T01:01:22.532Z,91.80
2023-05-12T01:04:16.888Z,91.60
2023-05-12T01:07:24.592Z,91.70
2023-05-12T01:10:20.970Z,91.70
2023-05-12T01:13:15.488Z,91.10
2023-05-12T01:16:13.938Z,90.80
2023-05-12T01:19:11.905Z,90.70
2023-05-12T01:22:06.875Z,90.40
2023-05-12T01:25:15.719Z,90.50
2023-05-12T01:28:10.956Z,90.20
2023-05-12T01:31:07.947Z,89.10
2023-05-12T01:34:02.162Z,88.70
2023-05-12T01:36:56.597Z,88.70
2023-05-12T01:39:50.808Z,88.00
2023-05-12T01:42:45.368Z,88.40
2023-05-12T01:45:39.959Z,88.00
2023-05-12T01:48:34.324Z,87.80
2023-05-12T01:51:28.570Z,87.60
2023-05-12T01:54:22.958Z,87.10
2023-05-12T01:57:17.332Z,86.90
2023-05-12T02:00:12.194Z,86.80
2023-05-12T02:03:06.627Z,86.50
2023-05-12T02:06:01.082Z,85.70
2023-05-12T02:08:55.519Z,85.70
2023-05-12T02:11:50.132Z,85.80
2023-05-12T02:14:44.363Z,85.60
2023-05-12T02:17:38.711Z,85.80
2023-05-12T02:20:33.226Z,85.70
2023-05-12T02:23:27.426Z,85.80
2023-05-12T02:26:22.446Z,85.60
2023-05-12T02:29:16.688Z,85.80
2023-05-12T02:32:10.967Z,85.90
2023-05-12T02:35:05.266Z,85.50
2023-05-12T02:37:59.576Z,83.90
2023-05-12T02:40:53.832Z,84.20
2023-05-12T02:43:47.979Z,82.40
2023-05-12T02:46:42.171Z,82.20
2023-05-12T02:49:36.318Z,81.30
2023-05-12T02:52:30.753Z,80.30
2023-05-12T02:55:25.246Z,81.80
2023-05-12T02:58:19.601Z,81.70
2023-05-12T03:01:13.998Z,81.50
2023-05-12T03:04:08.588Z,79.30
2023-05-12T03:07:02.957Z,79.70
2023-05-12T03:09:57.305Z,79.10
2023-05-12T03:12:51.475Z,78.80
2023-05-12T03:15:45.698Z,78.00
2023-05-12T03:18:39.895Z,78.10
2023-05-12T03:21:35.475Z,77.20
2023-05-12T03:24:29.778Z,77.00
2023-05-12T03:27:23.972Z,76.70
2023-05-12T03:30:18.427Z,76.70
2023-05-12T03:33:12.777Z,77.00
2023-05-12T03:36:07.457Z,77.10
2023-05-12T03:39:01.864Z,76.70
2023-05-12T03:41:56.036Z,76.40
2023-05-12T03:44:50.235Z,76.00
2023-05-12T03:47:44.716Z,76.20
2023-05-12T03:50:39.048Z,76.80
2023-05-12T03:53:33.510Z,75.80
2023-05-12T03:56:27.698Z,76.70
2023-05-12T03:59:23.097Z,76.40
2023-05-12T04:02:17.396Z,76.70
2023-05-12T04:05:12.105Z,77.00
2023-05-12T04:08:06.763Z,77.80
2023-05-12T04:11:02.583Z,78.50
2023-05-12T04:13:57.087Z,80.00
2023-05-12T04:16:51.667Z,81.70
2023-05-12T04:19:46.033Z,84.10
2023-05-12T04:22:40.675Z,84.90
2023-05-12T04:25:34.984Z,86.40
2023-05-12T04:28:29.464Z,86.80
2023-05-12T04:31:23.668Z,87.30
2023-05-12T04:34:17.918Z,87.70
2023-05-12T04:37:12.105Z,87.80
2023-05-12T04:40:07.225Z,86.50
2023-05-12T04:43:01.457Z,84.40
2023-05-12T04:45:58.100Z,84.70
2023-05-12T04:48:53.526Z,85.40
2023-05-12T04:51:47.759Z,84.80
2023-05-12T04:54:42.010Z,84.00
2023-05-12T04:57:36.360Z,84.20
2023-05-12T05:00:30.780Z,82.90
2023-05-12T05:03:25.150Z,82.00
2023-05-12T05:06:19.602Z,81.00
2023-05-12T05:09:13.851Z,81.70
2023-05-12T05:12:08.458Z,80.90
2023-05-12T05:15:03.122Z,80.70
2023-05-12T05:18:00.057Z,80.70
2023-05-12T05:20:58.468Z,80.50
2023-05-12T05:23:54.372Z,80.60
2023-05-12T05:26:48.723Z,80.60
2023-05-12T05:29:43.096Z,80.70
2023-05-12T05:32:41.650Z,80.80
2023-05-12T05:35:35.903Z,80.60
2023-05-12T05:38:30.274Z,81.40
2023-05-12T05:41:24.996Z,80.20
2023-05-12T05:44:19.283Z,80.30
2023-05-12T05:47:13.618Z,80.50
2023-05-12T05:50:08.608Z,80.40
2023-05-12T05:53:02.815Z,80.40
2023-05-12T05:55:57.051Z,80.00
2023-05-12T05:58:51.293Z,78.90
2023-05-12T06:01:46.880Z,79.40
2023-05-12T06:04:41.188Z,78.80
2023-05-12T06:07:35.688Z,78.50
2023-05-12T06:10:30.111Z,79.00
2023-05-12T06:13:24.409Z,78.90
2023-05-12T06:16:18.706Z,77.40
2023-05-12T06:19:13.606Z,77.20
2023-05-12T06:22:07.973Z,77.40
2023-05-12T06:25:02.570Z,77.90
2023-05-12T06:27:56.822Z,78.00
2023-05-12T06:30:51.136Z,76.70
2023-05-12T06:33:45.394Z,77.40
2023-05-12T06:36:42.005Z,78.00
2023-05-12T06:39:36.395Z,77.40
2023-05-12T06:42:30.668Z,77.80
2023-05-12T06:45:24.987Z,77.50
2023-05-12T06:48:19.211Z,77.90
2023-05-12T06:51:14.338Z,78.60
2023-05-12T06:54:08.821Z,78.70
2023-05-12T06:57:03.284Z,78.50
2023-05-12T06:59:57.598Z,78.70
2023-05-12T07:02:52.501Z,78.60
2023-05-12T07:05:46.844Z,78.50
2023-05-12T07:08:41.128Z,78.50
2023-05-12T07:11:35.555Z,78.60
2023-05-12T07:14:29.878Z,78.70
2023-05-12T07:17:24.154Z,78.70
2023-05-12T07:20:19.220Z,79.20
2023-05-12T07:23:13.943Z,79.20
2023-05-12T07:26:09.259Z,79.20
2023-05-12T07:29:05.201Z,79.20
2023-05-12T07:31:59.852Z,79.40
2023-05-12T07:34:54.630Z,79.50
2023-05-12T07:37:48.866Z,79.30
2023-05-12T07:40:43.236Z,79.60
2023-05-12T07:43:38.488Z,79.60
2023-05-12T07:46:32.777Z,79.40
2023-05-12T07:49:27.134Z,79.70
2023-05-12T07:52:21.497Z,79.30
2023-05-12T07:55:16.769Z,80.10
2023-05-12T07:58:11.005Z,80.20
2023-05-12T08:01:07.326Z,80.00
2023-05-12T08:04:01.742Z,79.90
2023-05-12T08:06:56.242Z,80.20
2023-05-12T08:09:50.479Z,80.00
2023-05-12T08:12:45.032Z,79.90
2023-05-12T08:15:40.143Z,79.60
2023-05-12T08:18:34.387Z,79.60
2023-05-12T08:21:29.954Z,79.90
2023-05-12T08:24:24.248Z,79.80
2023-05-12T08:27:18.537Z,80.20
2023-05-12T08:30:13.188Z,80.50
2023-05-12T08:33:08.916Z,80.20
2023-05-12T08:36:03.798Z,80.50
2023-05-12T08:38:58.818Z,80.60
2023-05-12T08:42:10.788Z,80.80
2023-05-12T08:45:05.584Z,81.00
2023-05-12T08:48:02.166Z,81.20
2023-05-12T08:50:57.192Z,81.10
2023-05-12T08:53:54.562Z,81.50
2023-05-12T08:59:47.046Z,81.70
2023-05-12T09:02:53.306Z,81.70
2023-05-12T09:05:48.750Z,82.10
2023-05-12T09:08:43.418Z,82.40
2023-05-12T09:11:37.524Z,82.80
2023-05-12T09:14:37.133Z,83.20
2023-05-12T09:17:31.295Z,83.20
2023-05-12T09:20:31.910Z,83.30
2023-05-12T09:23:27.215Z,83.40
2023-05-12T09:26:22.327Z,83.20
2023-05-12T09:29:27.907Z,83.20
2023-05-12T09:32:35.619Z,83.40
2023-05-12T09:35:29.816Z,83.80
2023-05-12T09:38:23.994Z,83.80
2023-05-12T09:41:25.266Z,83.90
2023-05-12T09:44:20.124Z,83.90
2023-05-12T09:47:16.763Z,83.90
2023-05-12T09:50:11.369Z,85.00
2023-05-12T09:53:09.167Z,84.50
2023-05-12T09:56:03.643Z,84.80
2023-05-12T09:58:59.186Z,85.00
2023-05-12T10:01:54.881Z,85.20
2023-05-12T10:04:55.025Z,85.50
2023-05-12T10:07:55.478Z,85.50
2023-05-12T10:10:53.440Z,85.80
2023-05-12T10:13:48.243Z,86.00
2023-05-12T10:16:43.237Z,86.20
2023-05-12T10:19:37.794Z,86.70
2023-05-12T10:22:33.914Z,87.00
2023-05-12T10:25:28.577Z,88.00
2023-05-12T10:28:23.751Z,87.20
2023-05-12T10:31:18.513Z,87.20
2023-05-12T10:34:20.074Z,87.50
2023-05-12T10:37:15.233Z,88.50
2023-05-12T10:40:12.271Z,89.10
2023-05-12T10:43:06.969Z,90.00
2023-05-12T10:46:31.471Z,90.10
2023-05-12T10:49:35.916Z,90.10
2023-05-12T10:52:30.097Z,90.50
2023-05-12T10:55:44.227Z,90.80
2023-05-12T10:58:39.115Z,90.70
2023-05-12T11:01:34.521Z,90.70
2023-05-12T11:04:50.833Z,90.50
2023-05-12T11:07:51.015Z,90.20
2023-05-12T11:10:47.585Z,89.90
2023-05-12T11:13:42.999Z,89.70
2023-05-12T11:16:44.833Z,90.00
2023-05-12T11:19:40.968Z,90.20
2023-05-12T11:22:35.626Z,90.20
2023-05-12T11:25:30.090Z,90.30
2023-05-12T11:28:24.862Z,90.20
2023-05-12T11:31:23.578Z,90.40
2023-05-12T11:34:19.591Z,90.20
2023-05-12T11:37:13.928Z,90.20
2023-05-12T11:40:17.223Z,90.20
2023-05-12T11:43:16.558Z,90.20
2023-05-12T11:46:10.789Z,90.30
2023-05-12T11:49:12.431Z,90.40
2023-05-12T11:52:07.349Z,90.30
2023-05-12T11:55:02.176Z,90.40
2023-05-12T11:58:04.358Z,90.80
2023-05-12T12:01:10.369Z,90.90
2023-05-12T12:04:04.667Z,90.90
2023-05-12T12:06:59.149Z,91.00
2023-05-12T12:09:53.443Z,91.10
2023-05-12T12:12:48.355Z,91.10
2023-05-12T12:15:42.593Z,91.20
2023-05-12T12:18:36.879Z,91.10
2023-05-12T12:21:31.066Z,91.20
2023-05-12T12:24:26.446Z,91.30
2023-05-12T12:27:20.785Z,91.40
2023-05-12T12:30:16.578Z,91.60
2023-05-12T12:33:10.828Z,91.50
2023-05-12T12:36:05.258Z,91.50
2023-05-12T12:38:59.431Z,91.60
2023-05-12T12:41:53.855Z,91.50
2023-05-12T12:44:51.421Z,91.60
2023-05-12T12:47:45.739Z,91.60
2023-05-12T12:50:40.667Z,91.70
2023-05-12T12:53:36.552Z,91.80
2023-05-12T12:56:31.280Z,91.70
2023-05-12T12:59:25.515Z,91.70
2023-05-12T13:02:20.098Z,91.70
2023-05-12T13:05:14.396Z,90.70
2023-05-12T13:08:09.030Z,90.80
2023-05-12T13:11:03.403Z,91.00
2023-05-12T13:13:57.695Z,90.80
2023-05-12T13:16:52.111Z,90.40
2023-05-12T13:19:46.307Z,90.50
2023-05-12T13:22:40.587Z,90.30
2023-05-12T13:25:34.947Z,89.70
2023-05-12T13:28:29.183Z,89.70
2023-05-12T13:31:23.404Z,89.60
2023-05-12T13:34:17.644Z,89.30
2023-05-12T13:37:11.822Z,89.10
2023-05-12T13:40:06.277Z,89.20
2023-05-12T13:43:00.776Z,88.80
2023-05-12T13:45:54.984Z,89.00
2023-05-12T13:48:49.300Z,89.20
2023-05-12T13:51:43.583Z,89.00
2023-05-12T13:54:38.184Z,88.90
2023-05-12T13:57:32.453Z,88.80
2023-05-12T14:00:28.486Z,89.00
2023-05-12T14:03:22.973Z,89.50
2023-05-12T14:06:17.265Z,89.60
2023-05-12T14:09:11.542Z,90.20
2023-05-12T14:12:06.651Z,90.00
2023-05-12T14:15:12.290Z,90.20
2023-05-12T14:18:15.838Z,90.40
2023-05-12T14:21:11.007Z,90.80
2023-05-12T14:24:06.426Z,91.10
2023-05-12T14:27:01.122Z,91.60
2023-05-12T14:29:55.486Z,91.90
2023-05-12T14:32:49.929Z,92.20
2023-05-12T14:35:52.872Z,92.40
2023-05-12T14:38:53.965Z,92.40
2023-05-12T14:41:48.260Z,92.40
2023-05-12T14:44:42.614Z,92.30
2023-05-12T14:47:36.867Z,92.10
2023-05-12T14:50:31.225Z,92.10
2023-05-12T14:53:26.036Z,92.00
2023-05-12T14:56:20.353Z,91.70
2023-05-12T14:59:14.623Z,91.50
2023-05-12T15:02:09.079Z,91.40
2023-05-12T15:05:03.308Z,91.50
2023-05-12T15:07:57.497Z,91.50
2023-05-12T15:10:52.027Z,91.60
2023-05-12T15:13:46.242Z,91.50
2023-05-12T15:16:40.543Z,91.50
2023-05-12T15:19:34.836Z,91.50
2023-05-12T15:22:32.534Z,91.50
2023-05-12T15:25:26.886Z,91.60
2023-05-12T15:28:22.124Z,91.60
2023-05-12T15:31:16.340Z,91.50
2023-05-12T15:34:11.579Z,91.30
2023-05-12T15:37:06.019Z,91.40
2023-05-12T15:40:03.799Z,91.40
2023-05-12T15:42:58.560Z,91.40
2023-05-12T15:45:52.849Z,91.70
2023-05-12T15:48:47.124Z,91.90
2023-05-12T15:51:41.440Z,92.00
2023-05-12T15:54:35.792Z,91.90
2023-05-12T15:57:30.361Z,91.80
2023-05-12T16:00:24.802Z,91.60
2023-05-12T16:03:19.055Z,91.60
2023-05-12T16:06:13.662Z,91.70
2023-05-12T16:09:08.461Z,91.80
2023-05-12T16:12:02.717Z,91.90
2023-05-12T16:14:56.976Z,91.80
2023-05-12T16:17:51.288Z,91.80
2023-05-12T16:20:48.373Z,91.70
2023-05-12T16:23:42.702Z,91.60
2023-05-12T16:26:37.591Z,91.40
2023-05-12T16:29:32.771Z,91.40
2023-05-12T16:32:27.125Z,91.20
2023-05-12T16:35:22.080Z,91.10
2023-05-12T16:38:16.595Z,91.20
2023-05-12T16:41:10.952Z,91.00
2023-05-12T16:44:05.410Z,91.10
2023-05-12T16:47:00.160Z,91.10
2023-05-12T16:49:55.164Z,90.90
2023-05-12T16:52:49.488Z,90.90
2023-05-12T16:55:44.298Z,90.80
2023-05-12T16:58:38.604Z,90.70
2023-05-12T17:01:33.069Z,90.50
2023-05-12T17:04:27.500Z,90.30
2023-05-12T17:07:21.778Z,90.30
2023-05-12T17:10:16.128Z,90.20
2023-05-12T17:13:10.678Z,90.10
2023-05-12T17:16:05.669Z,90.00
2023-05-12T17:21:57.006Z,90.00
2023-05-12T17:24:51.124Z,89.90
2023-05-12T17:27:45.303Z,89.80
2023-05-12T17:30:39.575Z,90.00
2023-05-12T17:33:33.788Z,90.00
2023-05-12T17:36:28.187Z,90.00
2023-05-12T17:39:22.300Z,90.10
2023-05-12T17:42:16.497Z,90.10
2023-05-12T17:45:11.236Z,90.20
2023-05-12T17:48:07.385Z,90.10
2023-05-12T17:51:02.612Z,90.10
2023-05-12T17:53:56.797Z,90.00
2023-05-12T17:56:51.089Z,90.20
2023-05-12T17:59:45.223Z,90.20
2023-05-12T18:02:40.535Z,90.30
2023-05-12T18:05:34.947Z,90.30
2023-05-12T18:08:30.816Z,90.30
2023-05-12T18:11:25.047Z,90.40
2023-05-12T18:14:19.331Z,90.30
2023-05-12T18:17:13.633Z,90.50
2023-05-12T18:20:08.706Z,90.60
2023-05-12T18:23:02.895Z,90.60
2023-05-12T18:25:57.663Z,90.70
2023-05-12T18:28:51.937Z,90.90
2023-05-12T18:31:46.257Z,90.90
2023-05-12T18:34:40.588Z,90.90
2023-05-12T18:37:34.878Z,90.90
2023-05-12T18:40:29.231Z,90.90
2023-05-12T18:43:23.556Z,90.80
2023-05-12T18:46:17.897Z,90.80
2023-05-12T18:49:12.309Z,91.00
2023-05-12T18:52:06.809Z,91.00
2023-05-12T18:55:01.112Z,91.00
2023-05-12T18:57:55.327Z,91.10
2023-05-12T19:00:49.659Z,91.10
2023-05-12T19:03:43.888Z,91.10
2023-05-12T19:06:38.859Z,91.60
2023-05-12T19:09:33.050Z,91.50
2023-05-12T19:12:28.043Z,91.70
2023-05-12T19:15:25.379Z,91.70
2023-05-12T19:18:19.181Z,91.70
2023-05-12T19:21:15.052Z,91.90
2023-05-12T19:24:09.725Z,91.80
2023-05-12T19:27:03.879Z,91.70
2023-05-12T19:29:58.788Z,91.60
2023-05-12T19:32:53.104Z,91.50
2023-05-12T19:35:47.578Z,91.30
2023-05-12T19:38:44.665Z,91.10
2023-05-12T19:41:40.569Z,91.00
2023-05-12T19:44:34.702Z,90.90
2023-05-12T19:47:29.386Z,90.70
2023-05-12T19:50:23.549Z,90.70
2023-05-12T19:53:17.745Z,90.70
2023-05-12T19:56:11.960Z,90.70
2023-05-12T19:59:06.216Z,90.70
2023-05-12T20:02:00.433Z,90.70
2023-05-12T20:04:54.681Z,90.70
2023-05-12T20:07:49.802Z,90.80
2023-05-12T20:10:44.006Z,90.80
2023-05-12T20:13:38.321Z,90.70
2023-05-12T20:16:32.566Z,90.70
2023-05-12T20:19:27.728Z,90.70
2023-05-12T20:22:23.201Z,90.90
2023-05-12T20:25:17.526Z,91.00
2023-05-12T20:28:12.680Z,91.10
2023-05-12T20:31:07.095Z,91.30
2023-05-12T20:34:01.276Z,91.30
2023-05-12T20:36:55.435Z,91.30
2023-05-12T20:39:49.892Z,91.40
2023-05-12T20:42:45.264Z,91.40
2023-05-12T20:45:39.492Z,91.50
2023-05-12T20:48:34.102Z,91.70
2023-05-12T20:51:28.886Z,91.80
2023-05-12T20:54:23.110Z,92.00
2023-05-12T20:57:17.389Z,92.40
2023-05-12T21:00:12.888Z,92.90
2023-05-12T21:03:07.823Z,92.70
2023-05-12T21:06:02.714Z,92.70
2023-05-12T21:08:57.254Z,92.60
2023-05-12T21:11:51.544Z,92.40
2023-05-12T21:14:46.386Z,92.40
2023-05-12T21:17:41.282Z,92.30
2023-05-12T21:20:35.511Z,92.50
2023-05-12T21:23:29.726Z,92.70
2023-05-12T21:26:24.111Z,92.70
2023-05-12T21:29:18.323Z,92.80
2023-05-12T21:32:12.762Z,92.90
2023-05-12T21:35:07.872Z,93.00
2023-05-12T21:38:02.233Z,93.00
2023-05-12T21:40:57.603Z,93.10
2023-05-12T21:43:51.881Z,93.40
2023-05-12T21:46:46.232Z,93.50
2023-05-12T21:49:40.698Z,93.50
2023-05-12T21:52:34.810Z,93.40
2023-05-12T21:55:29.251Z,93.40
2023-05-12T21:58:24.821Z,93.50
2023-05-12T22:01:20.165Z,93.50
2023-05-12T22:04:14.438Z,93.80
2023-05-12T22:07:09.021Z,93.60
2023-05-12T22:10:03.379Z,93.60
2023-05-12T22:12:57.920Z,93.70
2023-05-12T22:15:52.407Z,93.90
2023-05-12T22:18:46.879Z,94.00
2023-05-12T22:21:41.226Z,94.10
2023-05-12T22:24:35.632Z,94.30
2023-05-12T22:27:29.842Z,94.30
2023-05-12T22:30:24.154Z,94.30
2023-05-12T22:33:18.742Z,94.30
2023-05-12T22:36:13.033Z,94.30
2023-05-12T22:39:07.291Z,94.40
2023-05-12T22:42:01.617Z,94.50
2023-05-12T22:44:55.833Z,94.70
2023-05-12T22:47:50.107Z,94.90
2023-05-12T22:50:44.287Z,95.00
2023-05-12T22:53:38.664Z,95.00
2023-05-12T22:56:32.823Z,95.00
2023-05-12T22:59:27.050Z,95.20
2023-05-12T23:02:21.293Z,95.30
2023-05-12T23:05:15.658Z,95.30
2023-05-12T23:08:09.823Z,95.30
2023-05-12T23:11:04.080Z,95.50
2023-05-12T23:13:58.654Z,95.30
2023-05-12T23:16:52.947Z,95.40
2023-05-12T23:19:47.351Z,95.50
2023-05-12T23:22:41.918Z,95.80
2023-05-12T23:25:36.476Z,97.70
2023-05-12T23:28:30.684Z,94.30
2023-05-12T23:31:25.076Z,93.50
2023-05-12T23:34:19.374Z,93.00
2023-05-12T23:37:13.685Z,92.40
2023-05-12T23:40:08.748Z,91.60
2023-05-12T23:43:02.939Z,91.00
2023-05-12T23:45:57.447Z,90.60
2023-05-12T23:48:52.202Z,90.50
2023-05-12T23:51:46.409Z,90.30
2023-05-12T23:54:40.592Z,90.00
2023-05-12T23:57:34.705Z,90.00
